sensor_id;sensor_type;location;lat;lon;timestamp;P1;durP1;ratioP1;P2;durP2;ratioP2
64353;SDS011;50681;53.334;-6.536;2024-02-04T00:01:42;10.13;;;5.18;;
64353;SDS011;50681;53.334;-6.536;2024-02-04T00:04:09;9.60;;;5.40;;
64353;SDS011;50681;53.334;-6.536;2024-02-04T00:06:34;12.93;;;8.15;;
64353;SDS011;50681;53.334;-6.536;2024-02-04T00:09:00;8.57;;;5.67;;
64353;SDS011;50681;53.334;-6.536;2024-02-04T00:11:25;10.10;;;4.40;;
64353;SDS011;50681;53.334;-6.536;2024-02-04T00:13:51;7.00;;;4.30;;
64353;SDS011;50681;53.334;-6.536;2024-02-04T00:16:17;6.40;;;4.53;;
64353;SDS011;50681;53.334;-6.536;2024-02-04T00:18:42;8.87;;;4.63;;
64353;SDS011;50681;53.334;-6.536;2024-02-04T00:21:11;10.30;;;5.20;;
64353;SDS011;50681;53.334;-6.536;2024-02-04T00:23:37;10.13;;;5.47;;
64353;SDS011;50681;53.334;-6.536;2024-02-04T00:26:02;10.07;;;6.73;;
64353;SDS011;50681;53.334;-6.536;2024-02-04T00:28:27;8.33;;;5.47;;
64353;SDS011;50681;53.334;-6.536;2024-02-04T00:30:53;7.27;;;5.43;;
64353;SDS011;50681;53.334;-6.536;2024-02-04T00:33:21;26.33;;;14.40;;
64353;SDS011;50681;53.334;-6.536;2024-02-04T00:35:50;15.68;;;9.02;;
64353;SDS011;50681;53.334;-6.536;2024-02-04T00:38:15;8.97;;;6.37;;
64353;SDS011;50681;53.334;-6.536;2024-02-04T00:40:40;26.63;;;13.77;;
64353;SDS011;50681;53.334;-6.536;2024-02-04T00:43:06;9.93;;;5.10;;
64353;SDS011;50681;53.334;-6.536;2024-02-04T00:45:48;14.60;;;6.33;;
64353;SDS011;50681;53.334;-6.536;2024-02-04T00:48:14;16.58;;;7.65;;
64353;SDS011;50681;53.334;-6.536;2024-02-04T00:53:09;57.58;;;19.52;;
64353;SDS011;50681;53.334;-6.536;2024-02-04T00:55:34;6.83;;;5.33;;
64353;SDS011;50681;53.334;-6.536;2024-02-04T00:58:00;13.33;;;6.20;;
64353;SDS011;50681;53.334;-6.536;2024-02-04T01:02:09;13.68;;;6.15;;
64353;SDS011;50681;53.334;-6.536;2024-02-04T01:04:36;19.38;;;7.03;;
64353;SDS011;50681;53.334;-6.536;2024-02-04T01:07:02;22.53;;;8.20;;
64353;SDS011;50681;53.334;-6.536;2024-02-04T01:09:28;81.50;;;21.00;;
64353;SDS011;50681;53.334;-6.536;2024-02-04T01:11:53;13.30;;;6.55;;
64353;SDS011;50681;53.334;-6.536;2024-02-04T01:14:19;7.78;;;5.20;;
64353;SDS011;50681;53.334;-6.536;2024-02-04T01:16:45;24.33;;;13.90;;
64353;SDS011;50681;53.334;-6.536;2024-02-04T01:19:11;18.03;;;11.27;;
64353;SDS011;50681;53.334;-6.536;2024-02-04T01:21:37;9.50;;;6.10;;
64353;SDS011;50681;53.334;-6.536;2024-02-04T01:24:03;9.52;;;4.85;;
64353;SDS011;50681;53.334;-6.536;2024-02-04T01:26:30;40.70;;;14.95;;
64353;SDS011;50681;53.334;-6.536;2024-02-04T01:28:56;43.53;;;16.75;;
64353;SDS011;50681;53.334;-6.536;2024-02-04T01:31:22;12.57;;;6.88;;
64353;SDS011;50681;53.334;-6.536;2024-02-04T01:34:56;22.00;;;11.25;;
64353;SDS011;50681;53.334;-6.536;2024-02-04T01:37:23;14.27;;;6.88;;
64353;SDS011;50681;53.334;-6.536;2024-02-04T01:39:48;60.47;;;24.40;;
64353;SDS011;50681;53.334;-6.536;2024-02-04T01:42:13;10.50;;;5.77;;
64353;SDS011;50681;53.334;-6.536;2024-02-04T01:44:39;71.60;;;30.63;;
64353;SDS011;50681;53.334;-6.536;2024-02-04T01:47:04;50.70;;;20.83;;
64353;SDS011;50681;53.334;-6.536;2024-02-04T01:49:30;16.53;;;9.07;;
64353;SDS011;50681;53.334;-6.536;2024-02-04T01:51:55;23.37;;;11.60;;
64353;SDS011;50681;53.334;-6.536;2024-02-04T01:54:22;8.43;;;5.75;;
64353;SDS011;50681;53.334;-6.536;2024-02-04T01:56:50;13.07;;;6.80;;
64353;SDS011;50681;53.334;-6.536;2024-02-04T01:59:17;83.97;;;35.10;;
64353;SDS011;50681;53.334;-6.536;2024-02-04T02:01:44;9.13;;;5.85;;
64353;SDS011;50681;53.334;-6.536;2024-02-04T02:04:11;24.13;;;11.00;;
64353;SDS011;50681;53.334;-6.536;2024-02-04T02:06:38;21.92;;;11.98;;
64353;SDS011;50681;53.334;-6.536;2024-02-04T02:09:07;13.95;;;7.95;;
64353;SDS011;50681;53.334;-6.536;2024-02-04T02:14:16;36.58;;;18.48;;
64353;SDS011;50681;53.334;-6.536;2024-02-04T02:16:45;28.52;;;15.23;;
64353;SDS011;50681;53.334;-6.536;2024-02-04T02:22:42;9.60;;;5.07;;
64353;SDS011;50681;53.334;-6.536;2024-02-04T02:25:13;9.43;;;5.13;;
64353;SDS011;50681;53.334;-6.536;2024-02-04T02:27:49;33.90;;;17.88;;
64353;SDS011;50681;53.334;-6.536;2024-02-04T02:30:15;29.92;;;13.57;;
64353;SDS011;50681;53.334;-6.536;2024-02-04T02:32:42;17.60;;;9.40;;
64353;SDS011;50681;53.334;-6.536;2024-02-04T02:35:08;20.02;;;9.48;;
64353;SDS011;50681;53.334;-6.536;2024-02-04T02:37:43;12.00;;;6.07;;
64353;SDS011;50681;53.334;-6.536;2024-02-04T02:40:21;6.00;;;4.25;;
64353;SDS011;50681;53.334;-6.536;2024-02-04T02:42:52;13.68;;;6.85;;
64353;SDS011;50681;53.334;-6.536;2024-02-04T02:45:19;26.00;;;11.52;;
64353;SDS011;50681;53.334;-6.536;2024-02-04T02:47:47;9.57;;;4.90;;
64353;SDS011;50681;53.334;-6.536;2024-02-04T02:50:14;47.00;;;19.17;;
64353;SDS011;50681;53.334;-6.536;2024-02-04T02:52:39;34.72;;;14.10;;
64353;SDS011;50681;53.334;-6.536;2024-02-04T02:55:05;10.13;;;3.30;;
64353;SDS011;50681;53.334;-6.536;2024-02-04T02:57:30;4.03;;;1.90;;
64353;SDS011;50681;53.334;-6.536;2024-02-04T02:59:58;7.75;;;3.92;;
64353;SDS011;50681;53.334;-6.536;2024-02-04T03:02:24;17.10;;;8.13;;
64353;SDS011;50681;53.334;-6.536;2024-02-04T03:04:49;35.33;;;16.60;;
64353;SDS011;50681;53.334;-6.536;2024-02-04T03:07:15;3.47;;;1.90;;
64353;SDS011;50681;53.334;-6.536;2024-02-04T03:09:41;11.87;;;6.53;;
64353;SDS011;50681;53.334;-6.536;2024-02-04T03:14:32;4.45;;;2.10;;
64353;SDS011;50681;53.334;-6.536;2024-02-04T03:16:58;6.75;;;3.40;;
64353;SDS011;50681;53.334;-6.536;2024-02-04T03:19:23;5.30;;;2.13;;
64353;SDS011;50681;53.334;-6.536;2024-02-04T03:21:48;6.20;;;3.53;;
64353;SDS011;50681;53.334;-6.536;2024-02-04T03:24:14;9.83;;;4.90;;
64353;SDS011;50681;53.334;-6.536;2024-02-04T03:26:39;7.33;;;3.57;;
64353;SDS011;50681;53.334;-6.536;2024-02-04T03:29:05;21.17;;;11.30;;
64353;SDS011;50681;53.334;-6.536;2024-02-04T03:31:30;3.13;;;1.53;;
64353;SDS011;50681;53.334;-6.536;2024-02-04T03:33:56;6.22;;;2.42;;
64353;SDS011;50681;53.334;-6.536;2024-02-04T03:36:22;2.60;;;1.23;;
64353;SDS011;50681;53.334;-6.536;2024-02-04T03:38:49;14.10;;;6.82;;
64353;SDS011;50681;53.334;-6.536;2024-02-04T03:41:15;10.63;;;4.28;;
64353;SDS011;50681;53.334;-6.536;2024-02-04T03:43:42;11.23;;;6.78;;
64353;SDS011;50681;53.334;-6.536;2024-02-04T03:46:07;9.93;;;5.07;;
64353;SDS011;50681;53.334;-6.536;2024-02-04T03:48:33;3.50;;;2.00;;
64353;SDS011;50681;53.334;-6.536;2024-02-04T03:51:01;4.53;;;2.38;;
64353;SDS011;50681;53.334;-6.536;2024-02-04T03:53:26;2.10;;;1.37;;
64353;SDS011;50681;53.334;-6.536;2024-02-04T03:55:52;3.30;;;1.40;;
64353;SDS011;50681;53.334;-6.536;2024-02-04T03:58:19;3.47;;;1.50;;
64353;SDS011;50681;53.334;-6.536;2024-02-04T04:00:45;2.22;;;1.20;;
64353;SDS011;50681;53.334;-6.536;2024-02-04T04:03:10;2.17;;;1.30;;
64353;SDS011;50681;53.334;-6.536;2024-02-04T04:05:36;2.17;;;1.20;;
64353;SDS011;50681;53.334;-6.536;2024-02-04T04:08:01;3.33;;;1.77;;
64353;SDS011;50681;53.334;-6.536;2024-02-04T04:10:27;3.10;;;1.60;;
64353;SDS011;50681;53.334;-6.536;2024-02-04T04:12:52;4.83;;;1.60;;
64353;SDS011;50681;53.334;-6.536;2024-02-04T04:15:17;1.73;;;1.10;;
64353;SDS011;50681;53.334;-6.536;2024-02-04T04:17:43;1.63;;;0.87;;
64353;SDS011;50681;53.334;-6.536;2024-02-04T04:20:08;2.00;;;1.10;;
64353;SDS011;50681;53.334;-6.536;2024-02-04T04:22:34;2.07;;;1.20;;
64353;SDS011;50681;53.334;-6.536;2024-02-04T04:24:59;2.70;;;1.37;;
64353;SDS011;50681;53.334;-6.536;2024-02-04T04:27:25;2.73;;;1.17;;
64353;SDS011;50681;53.334;-6.536;2024-02-04T04:29:50;3.60;;;1.30;;
64353;SDS011;50681;53.334;-6.536;2024-02-04T04:32:15;1.83;;;1.17;;
64353;SDS011;50681;53.334;-6.536;2024-02-04T04:34:41;2.20;;;1.27;;
64353;SDS011;50681;53.334;-6.536;2024-02-04T04:37:06;2.80;;;1.45;;
64353;SDS011;50681;53.334;-6.536;2024-02-04T04:39:32;1.90;;;1.23;;
64353;SDS011;50681;53.334;-6.536;2024-02-04T04:41:58;2.63;;;1.30;;
64353;SDS011;50681;53.334;-6.536;2024-02-04T04:44:23;1.80;;;1.10;;
64353;SDS011;50681;53.334;-6.536;2024-02-04T04:46:48;2.50;;;1.40;;
64353;SDS011;50681;53.334;-6.536;2024-02-04T04:49:14;1.90;;;1.00;;
64353;SDS011;50681;53.334;-6.536;2024-02-04T04:51:43;2.03;;;1.10;;
64353;SDS011;50681;53.334;-6.536;2024-02-04T04:54:10;3.22;;;1.30;;
64353;SDS011;50681;53.334;-6.536;2024-02-04T04:56:38;2.37;;;1.10;;
64353;SDS011;50681;53.334;-6.536;2024-02-04T04:59:04;1.35;;;0.80;;
64353;SDS011;50681;53.334;-6.536;2024-02-04T05:01:31;1.45;;;0.90;;
64353;SDS011;50681;53.334;-6.536;2024-02-04T05:03:56;1.43;;;0.80;;
64353;SDS011;50681;53.334;-6.536;2024-02-04T05:06:22;2.33;;;0.90;;
64353;SDS011;50681;53.334;-6.536;2024-02-04T05:08:47;1.37;;;0.50;;
64353;SDS011;50681;53.334;-6.536;2024-02-04T05:11:12;0.60;;;0.57;;
64353;SDS011;50681;53.334;-6.536;2024-02-04T05:13:41;2.13;;;0.70;;
64353;SDS011;50681;53.334;-6.536;2024-02-04T05:16:06;0.73;;;0.52;;
64353;SDS011;50681;53.334;-6.536;2024-02-04T05:18:32;0.87;;;0.60;;
64353;SDS011;50681;53.334;-6.536;2024-02-04T05:20:57;2.53;;;1.03;;
64353;SDS011;50681;53.334;-6.536;2024-02-04T05:23:22;0.37;;;0.37;;
64353;SDS011;50681;53.334;-6.536;2024-02-04T05:25:48;1.00;;;0.60;;
64353;SDS011;50681;53.334;-6.536;2024-02-04T05:28:13;1.17;;;0.80;;
64353;SDS011;50681;53.334;-6.536;2024-02-04T05:30:39;1.60;;;0.50;;
64353;SDS011;50681;53.334;-6.536;2024-02-04T05:33:04;1.20;;;0.73;;
64353;SDS011;50681;53.334;-6.536;2024-02-04T05:35:29;0.53;;;0.50;;
64353;SDS011;50681;53.334;-6.536;2024-02-04T05:37:55;2.43;;;0.97;;
64353;SDS011;50681;53.334;-6.536;2024-02-04T05:40:20;1.40;;;0.70;;
64353;SDS011;50681;53.334;-6.536;2024-02-04T05:42:46;0.83;;;0.40;;
64353;SDS011;50681;53.334;-6.536;2024-02-04T05:45:11;0.50;;;0.30;;
64353;SDS011;50681;53.334;-6.536;2024-02-04T05:47:37;0.55;;;0.40;;
64353;SDS011;50681;53.334;-6.536;2024-02-04T05:50:03;3.87;;;0.50;;
64353;SDS011;50681;53.334;-6.536;2024-02-04T05:52:29;0.85;;;0.40;;
64353;SDS011;50681;53.334;-6.536;2024-02-04T05:54:55;1.87;;;0.57;;
64353;SDS011;50681;53.334;-6.536;2024-02-04T05:57:20;0.50;;;0.40;;
64353;SDS011;50681;53.334;-6.536;2024-02-04T05:59:46;2.33;;;0.63;;
64353;SDS011;50681;53.334;-6.536;2024-02-04T06:02:13;1.40;;;0.43;;
64353;SDS011;50681;53.334;-6.536;2024-02-04T06:04:39;0.55;;;0.38;;
64353;SDS011;50681;53.334;-6.536;2024-02-04T06:07:05;2.55;;;0.40;;
64353;SDS011;50681;53.334;-6.536;2024-02-04T06:09:31;1.15;;;0.50;;
64353;SDS011;50681;53.334;-6.536;2024-02-04T06:11:58;1.20;;;0.45;;
64353;SDS011;50681;53.334;-6.536;2024-02-04T06:14:24;0.75;;;0.32;;
64353;SDS011;50681;53.334;-6.536;2024-02-04T06:16:49;1.03;;;0.50;;
64353;SDS011;50681;53.334;-6.536;2024-02-04T06:19:15;0.27;;;0.23;;
64353;SDS011;50681;53.334;-6.536;2024-02-04T06:21:40;1.63;;;0.63;;
64353;SDS011;50681;53.334;-6.536;2024-02-04T06:24:06;0.40;;;0.30;;
64353;SDS011;50681;53.334;-6.536;2024-02-04T06:26:31;1.40;;;0.60;;
64353;SDS011;50681;53.334;-6.536;2024-02-04T06:28:57;2.07;;;0.60;;
64353;SDS011;50681;53.334;-6.536;2024-02-04T06:31:22;1.00;;;0.40;;
64353;SDS011;50681;53.334;-6.536;2024-02-04T06:33:48;0.67;;;0.40;;
64353;SDS011;50681;53.334;-6.536;2024-02-04T06:36:13;2.80;;;0.70;;
64353;SDS011;50681;53.334;-6.536;2024-02-04T06:38:39;4.03;;;0.80;;
64353;SDS011;50681;53.334;-6.536;2024-02-04T06:41:04;4.77;;;0.80;;
64353;SDS011;50681;53.334;-6.536;2024-02-04T06:43:29;3.47;;;0.70;;
64353;SDS011;50681;53.334;-6.536;2024-02-04T06:45:55;3.53;;;0.87;;
64353;SDS011;50681;53.334;-6.536;2024-02-04T06:48:20;5.47;;;1.10;;
64353;SDS011;50681;53.334;-6.536;2024-02-04T06:50:46;8.97;;;1.20;;
64353;SDS011;50681;53.334;-6.536;2024-02-04T06:53:13;3.67;;;1.10;;
64353;SDS011;50681;53.334;-6.536;2024-02-04T06:55:38;6.65;;;1.50;;
64353;SDS011;50681;53.334;-6.536;2024-02-04T06:58:04;10.03;;;1.57;;
64353;SDS011;50681;53.334;-6.536;2024-02-04T07:00:29;8.37;;;1.20;;
64353;SDS011;50681;53.334;-6.536;2024-02-04T07:02:55;5.93;;;1.53;;
64353;SDS011;50681;53.334;-6.536;2024-02-04T07:05:20;6.53;;;1.30;;
64353;SDS011;50681;53.334;-6.536;2024-02-04T07:10:12;9.63;;;1.80;;
64353;SDS011;50681;53.334;-6.536;2024-02-04T07:12:37;5.23;;;1.40;;
64353;SDS011;50681;53.334;-6.536;2024-02-04T07:15:03;5.87;;;1.63;;
64353;SDS011;50681;53.334;-6.536;2024-02-04T07:17:29;9.07;;;1.88;;
64353;SDS011;50681;53.334;-6.536;2024-02-04T07:19:54;4.50;;;1.37;;
64353;SDS011;50681;53.334;-6.536;2024-02-04T07:22:19;8.90;;;2.20;;
64353;SDS011;50681;53.334;-6.536;2024-02-04T07:24:45;5.50;;;1.70;;
64353;SDS011;50681;53.334;-6.536;2024-02-04T07:27:10;11.83;;;2.07;;
64353;SDS011;50681;53.334;-6.536;2024-02-04T07:29:36;8.43;;;2.03;;
64353;SDS011;50681;53.334;-6.536;2024-02-04T07:32:01;20.93;;;2.80;;
64353;SDS011;50681;53.334;-6.536;2024-02-04T07:34:26;11.00;;;2.07;;
64353;SDS011;50681;53.334;-6.536;2024-02-04T07:36:55;12.15;;;1.50;;
64353;SDS011;50681;53.334;-6.536;2024-02-04T07:39:20;11.10;;;2.07;;
64353;SDS011;50681;53.334;-6.536;2024-02-04T07:41:45;8.10;;;1.83;;
64353;SDS011;50681;53.334;-6.536;2024-02-04T07:44:11;15.27;;;2.17;;
64353;SDS011;50681;53.334;-6.536;2024-02-04T07:46:36;10.03;;;2.03;;
64353;SDS011;50681;53.334;-6.536;2024-02-04T07:49:02;8.33;;;1.70;;
64353;SDS011;50681;53.334;-6.536;2024-02-04T07:51:27;7.70;;;1.67;;
64353;SDS011;50681;53.334;-6.536;2024-02-04T07:53:52;7.97;;;2.43;;
64353;SDS011;50681;53.334;-6.536;2024-02-04T07:56:18;13.57;;;2.27;;
64353;SDS011;50681;53.334;-6.536;2024-02-04T07:58:43;3.33;;;1.10;;
64353;SDS011;50681;53.334;-6.536;2024-02-04T08:01:09;10.20;;;2.27;;
64353;SDS011;50681;53.334;-6.536;2024-02-04T08:03:34;5.33;;;1.00;;
64353;SDS011;50681;53.334;-6.536;2024-02-04T08:06:00;7.30;;;1.40;;
64353;SDS011;50681;53.334;-6.536;2024-02-04T08:08:27;4.45;;;1.20;;
64353;SDS011;50681;53.334;-6.536;2024-02-04T08:10:52;7.60;;;1.20;;
64353;SDS011;50681;53.334;-6.536;2024-02-04T08:13:18;7.80;;;1.70;;
64353;SDS011;50681;53.334;-6.536;2024-02-04T08:15:43;10.63;;;1.53;;
64353;SDS011;50681;53.334;-6.536;2024-02-04T08:18:09;3.80;;;1.17;;
64353;SDS011;50681;53.334;-6.536;2024-02-04T08:20:34;1.90;;;0.80;;
64353;SDS011;50681;53.334;-6.536;2024-02-04T08:22:59;5.87;;;1.07;;
64353;SDS011;50681;53.334;-6.536;2024-02-04T08:25:25;5.27;;;1.10;;
64353;SDS011;50681;53.334;-6.536;2024-02-04T08:27:50;8.32;;;1.08;;
64353;SDS011;50681;53.334;-6.536;2024-02-04T08:30:16;2.77;;;1.00;;
64353;SDS011;50681;53.334;-6.536;2024-02-04T08:32:44;6.50;;;1.15;;
64353;SDS011;50681;53.334;-6.536;2024-02-04T08:35:10;7.95;;;1.40;;
64353;SDS011;50681;53.334;-6.536;2024-02-04T08:37:35;10.33;;;3.13;;
64353;SDS011;50681;53.334;-6.536;2024-02-04T08:40:05;12.43;;;5.05;;
64353;SDS011;50681;53.334;-6.536;2024-02-04T08:42:31;1.92;;;0.88;;
64353;SDS011;50681;53.334;-6.536;2024-02-04T08:44:58;7.53;;;1.43;;
64353;SDS011;50681;53.334;-6.536;2024-02-04T08:49:48;2.80;;;1.08;;
64353;SDS011;50681;53.334;-6.536;2024-02-04T08:52:14;4.63;;;2.13;;
64353;SDS011;50681;53.334;-6.536;2024-02-04T08:54:39;4.23;;;1.40;;
64353;SDS011;50681;53.334;-6.536;2024-02-04T08:57:05;2.80;;;1.57;;
64353;SDS011;50681;53.334;-6.536;2024-02-04T08:59:30;3.80;;;2.27;;
64353;SDS011;50681;53.334;-6.536;2024-02-04T09:01:56;5.77;;;1.70;;
64353;SDS011;50681;53.334;-6.536;2024-02-04T09:04:21;7.10;;;1.57;;
64353;SDS011;50681;53.334;-6.536;2024-02-04T09:06:46;4.87;;;1.00;;
64353;SDS011;50681;53.334;-6.536;2024-02-04T09:09:12;2.77;;;1.07;;
64353;SDS011;50681;53.334;-6.536;2024-02-04T09:11:37;5.83;;;0.70;;
64353;SDS011;50681;53.334;-6.536;2024-02-04T09:14:03;5.47;;;0.77;;
64353;SDS011;50681;53.334;-6.536;2024-02-04T09:16:29;4.70;;;0.70;;
64353;SDS011;50681;53.334;-6.536;2024-02-04T09:19:00;3.20;;;0.75;;
64353;SDS011;50681;53.334;-6.536;2024-02-04T09:21:25;1.38;;;0.52;;
64353;SDS011;50681;53.334;-6.536;2024-02-04T09:23:51;1.67;;;0.30;;
64353;SDS011;50681;53.334;-6.536;2024-02-04T09:26:16;5.43;;;2.50;;
64353;SDS011;50681;53.334;-6.536;2024-02-04T09:28:42;3.27;;;1.53;;
64353;SDS011;50681;53.334;-6.536;2024-02-04T09:31:08;4.83;;;1.10;;
64353;SDS011;50681;53.334;-6.536;2024-02-04T09:33:34;4.72;;;2.72;;
64353;SDS011;50681;53.334;-6.536;2024-02-04T09:36:00;7.68;;;1.10;;
64353;SDS011;50681;53.334;-6.536;2024-02-04T09:38:25;7.47;;;2.43;;
64353;SDS011;50681;53.334;-6.536;2024-02-04T09:40:51;5.43;;;1.30;;
64353;SDS011;50681;53.334;-6.536;2024-02-04T09:43:16;5.83;;;2.80;;
64353;SDS011;50681;53.334;-6.536;2024-02-04T09:45:44;5.03;;;1.45;;
64353;SDS011;50681;53.334;-6.536;2024-02-04T09:48:09;5.47;;;1.80;;
64353;SDS011;50681;53.334;-6.536;2024-02-04T09:50:37;7.22;;;1.60;;
64353;SDS011;50681;53.334;-6.536;2024-02-04T09:53:05;7.82;;;2.75;;
64353;SDS011;50681;53.334;-6.536;2024-02-04T09:55:34;6.88;;;1.90;;
64353;SDS011;50681;53.334;-6.536;2024-02-04T09:58:01;11.05;;;3.45;;
64353;SDS011;50681;53.334;-6.536;2024-02-04T10:00:28;9.43;;;2.20;;
64353;SDS011;50681;53.334;-6.536;2024-02-04T10:02:55;17.23;;;2.20;;
64353;SDS011;50681;53.334;-6.536;2024-02-04T10:08:00;4.65;;;1.60;;
64353;SDS011;50681;53.334;-6.536;2024-02-04T10:10:26;15.85;;;6.53;;
64353;SDS011;50681;53.334;-6.536;2024-02-04T10:12:51;4.83;;;1.70;;
64353;SDS011;50681;53.334;-6.536;2024-02-04T10:15:17;6.40;;;2.03;;
64353;SDS011;50681;53.334;-6.536;2024-02-04T10:17:44;14.90;;;3.07;;
64353;SDS011;50681;53.334;-6.536;2024-02-04T10:20:10;6.47;;;2.15;;
64353;SDS011;50681;53.334;-6.536;2024-02-04T10:22:37;5.85;;;1.65;;
64353;SDS011;50681;53.334;-6.536;2024-02-04T10:25:09;8.07;;;2.63;;
64353;SDS011;50681;53.334;-6.536;2024-02-04T10:27:38;9.57;;;1.75;;
64353;SDS011;50681;53.334;-6.536;2024-02-04T10:30:04;3.92;;;1.75;;
64353;SDS011;50681;53.334;-6.536;2024-02-04T10:32:30;7.78;;;2.35;;
64353;SDS011;50681;53.334;-6.536;2024-02-04T10:34:57;4.63;;;2.40;;
64353;SDS011;50681;53.334;-6.536;2024-02-04T10:37:23;4.75;;;1.95;;
64353;SDS011;50681;53.334;-6.536;2024-02-04T10:39:48;7.77;;;2.10;;
64353;SDS011;50681;53.334;-6.536;2024-02-04T10:42:14;12.88;;;5.10;;
64353;SDS011;50681;53.334;-6.536;2024-02-04T10:44:42;14.60;;;2.55;;
64353;SDS011;50681;53.334;-6.536;2024-02-04T10:47:11;10.30;;;2.90;;
64353;SDS011;50681;53.334;-6.536;2024-02-04T10:49:43;3.75;;;1.50;;
64353;SDS011;50681;53.334;-6.536;2024-02-04T10:52:14;8.00;;;1.75;;
64353;SDS011;50681;53.334;-6.536;2024-02-04T10:54:40;7.50;;;2.10;;
64353;SDS011;50681;53.334;-6.536;2024-02-04T10:59:37;7.90;;;2.67;;
64353;SDS011;50681;53.334;-6.536;2024-02-04T11:02:04;9.85;;;2.50;;
64353;SDS011;50681;53.334;-6.536;2024-02-04T11:04:30;9.27;;;2.10;;
64353;SDS011;50681;53.334;-6.536;2024-02-04T11:09:36;11.52;;;2.80;;
64353;SDS011;50681;53.334;-6.536;2024-02-04T11:12:08;7.15;;;1.90;;
64353;SDS011;50681;53.334;-6.536;2024-02-04T11:14:38;11.68;;;2.78;;
64353;SDS011;50681;53.334;-6.536;2024-02-04T11:22:44;14.63;;;2.88;;
64353;SDS011;50681;53.334;-6.536;2024-02-04T11:28:20;20.60;;;3.33;;
64353;SDS011;50681;53.334;-6.536;2024-02-04T11:30:50;16.77;;;2.90;;
64353;SDS011;50681;53.334;-6.536;2024-02-04T11:33:19;12.17;;;2.13;;
64353;SDS011;50681;53.334;-6.536;2024-02-04T11:35:47;20.02;;;4.07;;
64353;SDS011;50681;53.334;-6.536;2024-02-04T11:39:37;15.07;;;2.90;;
64353;SDS011;50681;53.334;-6.536;2024-02-04T11:42:15;18.33;;;3.58;;
64353;SDS011;50681;53.334;-6.536;2024-02-04T11:44:41;20.73;;;3.83;;
64353;SDS011;50681;53.334;-6.536;2024-02-04T11:47:06;29.67;;;4.40;;
64353;SDS011;50681;53.334;-6.536;2024-02-04T11:49:31;18.63;;;3.63;;
64353;SDS011;50681;53.334;-6.536;2024-02-04T11:51:57;27.57;;;5.07;;
64353;SDS011;50681;53.334;-6.536;2024-02-04T11:54:22;15.80;;;2.93;;
64353;SDS011;50681;53.334;-6.536;2024-02-04T11:56:51;16.53;;;3.57;;
64353;SDS011;50681;53.334;-6.536;2024-02-04T11:59:25;28.77;;;4.57;;
64353;SDS011;50681;53.334;-6.536;2024-02-04T12:01:55;26.42;;;3.60;;
64353;SDS011;50681;53.334;-6.536;2024-02-04T12:04:20;16.65;;;3.97;;
64353;SDS011;50681;53.334;-6.536;2024-02-04T12:06:47;17.88;;;3.70;;
64353;SDS011;50681;53.334;-6.536;2024-02-04T12:09:12;20.67;;;3.50;;
64353;SDS011;50681;53.334;-6.536;2024-02-04T12:11:43;16.38;;;4.25;;
64353;SDS011;50681;53.334;-6.536;2024-02-04T12:14:08;33.03;;;5.90;;
64353;SDS011;50681;53.334;-6.536;2024-02-04T12:16:35;20.80;;;4.18;;
64353;SDS011;50681;53.334;-6.536;2024-02-04T12:19:01;43.28;;;6.20;;
64353;SDS011;50681;53.334;-6.536;2024-02-04T12:21:28;25.30;;;5.22;;
64353;SDS011;50681;53.334;-6.536;2024-02-04T12:23:54;25.43;;;5.43;;
64353;SDS011;50681;53.334;-6.536;2024-02-04T12:28:55;27.00;;;6.00;;
64353;SDS011;50681;53.334;-6.536;2024-02-04T12:33:55;23.15;;;4.55;;
64353;SDS011;50681;53.334;-6.536;2024-02-04T12:36:26;36.30;;;6.78;;
64353;SDS011;50681;53.334;-6.536;2024-02-04T12:38:54;29.42;;;4.70;;
64353;SDS011;50681;53.334;-6.536;2024-02-04T12:43:52;33.28;;;5.18;;
64353;SDS011;50681;53.334;-6.536;2024-02-04T12:46:22;29.10;;;5.47;;
64353;SDS011;50681;53.334;-6.536;2024-02-04T12:48:52;30.55;;;5.03;;
64353;SDS011;50681;53.334;-6.536;2024-02-04T12:51:24;25.55;;;5.60;;
64353;SDS011;50681;53.334;-6.536;2024-02-04T12:53:50;18.73;;;4.85;;
64353;SDS011;50681;53.334;-6.536;2024-02-04T12:56:15;38.07;;;4.90;;
64353;SDS011;50681;53.334;-6.536;2024-02-04T12:58:44;22.77;;;4.83;;
64353;SDS011;50681;53.334;-6.536;2024-02-04T13:01:09;34.92;;;5.32;;
64353;SDS011;50681;53.334;-6.536;2024-02-04T13:03:35;33.88;;;5.88;;
64353;SDS011;50681;53.334;-6.536;2024-02-04T13:06:00;26.83;;;6.97;;
64353;SDS011;50681;53.334;-6.536;2024-02-04T13:08:26;24.02;;;4.97;;
64353;SDS011;50681;53.334;-6.536;2024-02-04T13:10:54;41.47;;;7.80;;
64353;SDS011;50681;53.334;-6.536;2024-02-04T13:13:23;32.75;;;6.25;;
64353;SDS011;50681;53.334;-6.536;2024-02-04T13:15:53;21.83;;;4.72;;
64353;SDS011;50681;53.334;-6.536;2024-02-04T13:18:19;30.48;;;4.57;;
64353;SDS011;50681;53.334;-6.536;2024-02-04T13:20:45;22.80;;;5.07;;
64353;SDS011;50681;53.334;-6.536;2024-02-04T13:23:10;34.23;;;6.37;;
64353;SDS011;50681;53.334;-6.536;2024-02-04T13:25:36;39.08;;;6.13;;
64353;SDS011;50681;53.334;-6.536;2024-02-04T13:28:05;29.48;;;6.25;;
64353;SDS011;50681;53.334;-6.536;2024-02-04T13:30:31;43.70;;;6.13;;
64353;SDS011;50681;53.334;-6.536;2024-02-04T13:32:56;38.30;;;6.53;;
64353;SDS011;50681;53.334;-6.536;2024-02-04T13:35:22;31.88;;;6.38;;
64353;SDS011;50681;53.334;-6.536;2024-02-04T13:37:48;36.83;;;7.00;;
64353;SDS011;50681;53.334;-6.536;2024-02-04T13:40:17;31.25;;;5.68;;
64353;SDS011;50681;53.334;-6.536;2024-02-04T13:42:43;42.00;;;6.53;;
64353;SDS011;50681;53.334;-6.536;2024-02-04T13:45:09;38.78;;;7.45;;
64353;SDS011;50681;53.334;-6.536;2024-02-04T13:47:35;40.20;;;6.28;;
64353;SDS011;50681;53.334;-6.536;2024-02-04T13:50:02;31.85;;;6.30;;
64353;SDS011;50681;53.334;-6.536;2024-02-04T13:52:28;35.03;;;4.72;;
64353;SDS011;50681;53.334;-6.536;2024-02-04T13:54:53;33.65;;;6.00;;
64353;SDS011;50681;53.334;-6.536;2024-02-04T13:57:19;32.57;;;5.27;;
64353;SDS011;50681;53.334;-6.536;2024-02-04T13:59:44;32.87;;;7.33;;
64353;SDS011;50681;53.334;-6.536;2024-02-04T14:02:10;23.87;;;5.57;;
64353;SDS011;50681;53.334;-6.536;2024-02-04T14:04:35;50.03;;;6.47;;
64353;SDS011;50681;53.334;-6.536;2024-02-04T14:07:01;25.20;;;5.33;;
64353;SDS011;50681;53.334;-6.536;2024-02-04T14:09:29;44.25;;;5.30;;
64353;SDS011;50681;53.334;-6.536;2024-02-04T14:11:55;36.63;;;6.32;;
64353;SDS011;50681;53.334;-6.536;2024-02-04T14:14:22;40.60;;;5.82;;
64353;SDS011;50681;53.334;-6.536;2024-02-04T14:16:49;29.58;;;5.18;;
64353;SDS011;50681;53.334;-6.536;2024-02-04T14:19:14;34.72;;;6.72;;
64353;SDS011;50681;53.334;-6.536;2024-02-04T14:21:43;42.47;;;6.77;;
64353;SDS011;50681;53.334;-6.536;2024-02-04T14:24:08;32.90;;;6.82;;
64353;SDS011;50681;53.334;-6.536;2024-02-04T14:26:34;30.60;;;5.87;;
64353;SDS011;50681;53.334;-6.536;2024-02-04T14:29:00;29.77;;;5.88;;
64353;SDS011;50681;53.334;-6.536;2024-02-04T14:31:25;25.53;;;4.77;;
64353;SDS011;50681;53.334;-6.536;2024-02-04T14:33:51;44.70;;;6.18;;
64353;SDS011;50681;53.334;-6.536;2024-02-04T14:36:16;30.80;;;6.03;;
64353;SDS011;50681;53.334;-6.536;2024-02-04T14:38:42;40.45;;;5.93;;
64353;SDS011;50681;53.334;-6.536;2024-02-04T14:41:08;40.85;;;6.47;;
64353;SDS011;50681;53.334;-6.536;2024-02-04T14:43:34;39.67;;;6.93;;
64353;SDS011;50681;53.334;-6.536;2024-02-04T14:46:00;42.90;;;6.55;;
64353;SDS011;50681;53.334;-6.536;2024-02-04T14:48:25;38.37;;;5.70;;
64353;SDS011;50681;53.334;-6.536;2024-02-04T14:50:51;51.92;;;6.68;;
64353;SDS011;50681;53.334;-6.536;2024-02-04T14:53:16;30.13;;;5.40;;
64353;SDS011;50681;53.334;-6.536;2024-02-04T14:55:42;49.23;;;5.97;;
64353;SDS011;50681;53.334;-6.536;2024-02-04T14:58:08;33.17;;;6.70;;
64353;SDS011;50681;53.334;-6.536;2024-02-04T15:00:34;39.67;;;6.45;;
64353;SDS011;50681;53.334;-6.536;2024-02-04T15:02:59;23.23;;;4.43;;
64353;SDS011;50681;53.334;-6.536;2024-02-04T15:05:25;35.22;;;7.60;;
64353;SDS011;50681;53.334;-6.536;2024-02-04T15:07:51;31.02;;;5.95;;